Time;durP1;ratioP1;P1;durP2;ratioP2;P2;SDS_P1;SDS_P2;PMS_P1;PMS_P2;Temp;Humidity;BMP_temperature;BMP_pressure;BME280_temperature;BME280_humidity;BME280_pressure;Samples;Min_cycle;Max_cycle;Signal;HPM_P1;HPM_P2
2023/01/19 00:01:55;;;;;;;19.55;7.57;;;;;;;;;;6198438;23;20027;-90
2023/01/19 00:04:23;;;;;;;16.52;8.05;;;;;;;;;;6187562;23;20021;-90
2023/01/19 00:06:55;;;;;;;18.63;8.10;;;;;;;;;;6189090;23;20108;-90
2023/01/19 00:09:23;;;;;;;16.90;7.40;;;;;;;;;;6268857;22;20027;-90
2023/01/19 00:11:55;;;;;;;16.33;7.93;;;;;;;;;;6230298;23;20023;-90
2023/01/19 00:14:27;;;;;;;15.95;7.68;;;;;;;;;;6196507;23;20397;-90
2023/01/19 00:16:55;;;;;;;18.00;7.80;;;;;;;;;;6255937;22;20043;-89
2023/01/19 00:19:23;;;;;;;16.40;7.15;;;;;;;;;;6229793;23;20020;-91
2023/01/19 00:21:51;;;;;;;19.48;8.25;;;;;;;;;;6267947;23;20016;-91
2023/01/19 00:24:19;;;;;;;16.35;7.40;;;;;;;;;;6230510;23;20107;-91
2023/01/19 00:26:47;;;;;;;17.02;7.70;;;;;;;;;;6256706;23;20023;-90
2023/01/19 00:29:15;;;;;;;14.20;6.90;;;;;;;;;;6232456;23;20095;-91
2023/01/19 00:32:11;;;;;;;17.70;7.82;;;;;;;;;;6260065;23;20051;-91
2023/01/19 00:34:48;;;;;;;14.07;7.35;;;;;;;;;;6237457;23;20055;-92
2023/01/19 00:37:44;;;;;;;17.65;7.65;;;;;;;;;;6261472;23;20027;-91
2023/01/19 00:40:17;;;;;;;17.15;7.25;;;;;;;;;;6202102;23;20027;-90
2023/01/19 00:42:47;;;;;;;20.65;7.10;;;;;;;;;;6229366;23;20099;-90
2023/01/19 00:45:17;;;;;;;18.65;7.63;;;;;;;;;;6256414;23;20048;-89
2023/01/19 00:47:46;;;;;;;16.88;7.85;;;;;;;;;;6221574;23;20067;-90
2023/01/19 00:50:16;;;;;;;19.98;7.68;;;;;;;;;;6236167;23;20015;-88
2023/01/19 00:52:43;;;;;;;19.17;7.35;;;;;;;;;;6254336;23;20020;-89
2023/01/19 00:55:17;;;;;;;16.20;8.40;;;;;;;;;;6264661;23;20035;-90
2023/01/19 00:58:11;;;;;;;20.20;7.65;;;;;;;;;;6257908;23;20023;-90
2023/01/19 01:01:04;;;;;;;18.15;7.18;;;;;;;;;;6226642;23;20008;-89
2023/01/19 01:03:33;;;;;;;17.65;7.30;;;;;;;;;;6258685;23;20448;-90
2023/01/19 01:06:25;;;;;;;15.23;7.43;;;;;;;;;;6260936;23;20054;-89
2023/01/19 01:08:59;;;;;;;15.85;8.00;;;;;;;;;;6232608;23;20016;-90
2023/01/19 01:11:27;;;;;;;15.38;8.10;;;;;;;;;;6256592;22;20016;-91
2023/01/19 01:13:55;;;;;;;15.27;7.18;;;;;;;;;;6257645;23;20352;-90
2023/01/19 01:16:23;;;;;;;15.68;6.95;;;;;;;;;;6246185;23;20026;-91
2023/01/19 01:18:51;;;;;;;15.63;7.70;;;;;;;;;;6258697;23;20024;-90
2023/01/19 01:21:19;;;;;;;16.52;7.72;;;;;;;;;;6236251;23;20012;-90
2023/01/19 01:23:48;;;;;;;18.85;7.72;;;;;;;;;;6204213;23;20047;-91
2023/01/19 01:26:21;;;;;;;15.73;7.38;;;;;;;;;;6253679;23;20353;-90
2023/01/19 01:28:49;;;;;;;17.27;7.68;;;;;;;;;;6253619;23;20024;-90
2023/01/19 01:31:17;;;;;;;15.02;7.72;;;;;;;;;;6252181;23;20052;-90
2023/01/19 01:33:45;;;;;;;18.95;7.75;;;;;;;;;;6221817;23;20032;-88
2023/01/19 01:36:37;;;;;;;15.38;7.22;;;;;;;;;;6256877;23;20016;-90
2023/01/19 01:39:08;;;;;;;15.43;7.63;;;;;;;;;;6247322;23;20020;-88
2023/01/19 01:41:38;;;;;;;13.98;7.63;;;;;;;;;;6224431;23;20086;-88
2023/01/19 01:45:01;;;;;;;15.95;7.78;;;;;;;;;;6258273;22;20440;-89
2023/01/19 01:47:44;;;;;;;14.82;7.20;;;;;;;;;;6166160;23;20018;-89
2023/01/19 01:50:21;;;;;;;16.98;7.72;;;;;;;;;;6167591;23;20027;-89
2023/01/19 01:52:57;;;;;;;16.17;7.82;;;;;;;;;;6167797;23;20025;-89
2023/01/19 01:55:40;;;;;;;16.25;7.80;;;;;;;;;;6145051;23;20028;-89
2023/01/19 01:58:10;;;;;;;19.02;7.60;;;;;;;;;;6143834;23;20532;-89
2023/01/19 02:03:31;;;;;;;14.88;7.72;;;;;;;;;;6108375;23;20104;-89
2023/01/19 02:06:23;;;;;;;17.58;8.23;;;;;;;;;;6132785;23;20157;-89
2023/01/19 02:14:47;;;;;;;12.40;6.28;;;;;;;;;;6156924;23;20028;-89
2023/01/19 02:17:19;;;;;;;17.60;7.93;;;;;;;;;;6107771;23;20025;-89
2023/01/19 02:19:51;;;;;;;17.40;7.25;;;;;;;;;;6085144;23;20347;-89
2023/01/19 02:22:43;;;;;;;13.40;6.72;;;;;;;;;;6237576;23;20035;-89
2023/01/19 02:25:35;;;;;;;18.00;6.93;;;;;;;;;;6259971;23;20074;-89
2023/01/19 02:28:07;;;;;;;19.10;7.80;;;;;;;;;;6258378;23;20021;-89
2023/01/19 02:30:40;;;;;;;14.77;6.82;;;;;;;;;;6248183;23;20393;-89
2023/01/19 02:33:13;;;;;;;14.57;7.30;;;;;;;;;;6259473;23;20027;-89
2023/01/19 02:35:41;;;;;;;13.02;7.10;;;;;;;;;;6258775;23;20020;-90
2023/01/19 02:38:10;;;;;;;15.23;6.78;;;;;;;;;;6222221;23;20023;-89
2023/01/19 02:41:05;;;;;;;14.15;6.80;;;;;;;;;;6238554;23;20042;-89
2023/01/19 02:43:34;;;;;;;13.20;6.93;;;;;;;;;;6258400;23;20039;-89
2023/01/19 02:46:06;;;;;;;16.27;7.53;;;;;;;;;;6258510;23;20024;-89
2023/01/19 02:48:33;;;;;;;13.38;7.03;;;;;;;;;;6257951;23;20047;-89
2023/01/19 02:51:10;;;;;;;14.02;7.05;;;;;;;;;;6233495;23;20016;-89
2023/01/19 02:54:23;;;;;;;18.02;8.55;;;;;;;;;;6228862;23;20024;-89
2023/01/19 02:57:31;;;;;;;14.65;7.53;;;;;;;;;;6233008;23;20055;-89
2023/01/19 03:00:08;;;;;;;17.85;7.20;;;;;;;;;;6237751;23;20020;-89
2023/01/19 03:03:04;;;;;;;16.88;8.45;;;;;;;;;;6258986;23;20024;-90
2023/01/19 03:05:53;;;;;;;14.57;7.30;;;;;;;;;;6258396;23;20031;-89
2023/01/19 03:08:41;;;;;;;15.40;8.27;;;;;;;;;;6259962;23;20020;-88
2023/01/19 03:11:11;;;;;;;16.65;7.65;;;;;;;;;;6259724;22;20012;-89
2023/01/19 03:13:48;;;;;;;17.33;6.93;;;;;;;;;;6223728;23;20084;-89
2023/01/19 03:16:33;;;;;;;15.80;7.00;;;;;;;;;;6257354;23;20059;-89
2023/01/19 03:19:30;;;;;;;16.67;7.53;;;;;;;;;;6258946;22;20021;-89
2023/01/19 03:22:13;;;;;;;13.40;7.32;;;;;;;;;;6259768;22;20023;-89
2023/01/19 03:24:44;;;;;;;12.60;7.35;;;;;;;;;;6247964;23;20028;-89
2023/01/19 03:27:41;;;;;;;14.38;7.18;;;;;;;;;;6259594;23;20020;-89
2023/01/19 03:30:22;;;;;;;13.93;7.57;;;;;;;;;;6257143;23;20849;-89
2023/01/19 03:33:08;;;;;;;16.35;7.68;;;;;;;;;;6259274;23;20500;-89
2023/01/19 03:35:40;;;;;;;14.75;8.23;;;;;;;;;;6257948;23;20020;-89
2023/01/19 03:38:15;;;;;;;15.85;8.02;;;;;;;;;;6248261;23;20050;-89
2023/01/19 03:40:51;;;;;;;22.45;8.65;;;;;;;;;;6259152;23;20011;-88
2023/01/19 03:43:43;;;;;;;18.67;7.78;;;;;;;;;;6247182;23;20444;-89
2023/01/19 03:46:35;;;;;;;14.82;7.85;;;;;;;;;;6247092;23;20039;-89
2023/01/19 03:49:07;;;;;;;16.52;8.00;;;;;;;;;;6221574;23;20471;-89
2023/01/19 03:51:38;;;;;;;14.35;8.13;;;;;;;;;;6258364;22;20016;-89
2023/01/19 03:54:11;;;;;;;16.02;8.30;;;;;;;;;;6257322;23;20019;-89
2023/01/19 03:56:43;;;;;;;15.23;7.32;;;;;;;;;;6247136;23;20020;-89
2023/01/19 03:59:11;;;;;;;17.85;7.90;;;;;;;;;;6258376;22;20016;-90
2023/01/19 04:01:39;;;;;;;15.45;7.93;;;;;;;;;;6232776;23;20016;-89
2023/01/19 04:04:33;;;;;;;13.82;7.40;;;;;;;;;;6247167;23;20020;-89
2023/01/19 04:07:27;;;;;;;18.58;7.97;;;;;;;;;;6257230;23;20024;-89
2023/01/19 04:09:59;;;;;;;15.77;8.38;;;;;;;;;;6256801;23;20086;-89
2023/01/19 04:12:27;;;;;;;19.48;8.07;;;;;;;;;;6246624;23;20016;-89
2023/01/19 04:15:19;;;;;;;18.40;8.05;;;;;;;;;;6220460;23;20046;-90
2023/01/19 04:17:47;;;;;;;18.92;8.13;;;;;;;;;;6255136;23;20020;-89
2023/01/19 04:20:15;;;;;;;16.17;8.40;;;;;;;;;;6230694;23;20019;-89
2023/01/19 04:25:36;;;;;;;16.73;8.02;;;;;;;;;;6255795;23;20016;-89
2023/01/19 04:28:05;;;;;;;15.98;8.35;;;;;;;;;;6255628;23;20019;-89
2023/01/19 04:30:33;;;;;;;16.00;8.45;;;;;;;;;;6230583;23;20466;-89
2023/01/19 04:33:01;;;;;;;18.08;8.48;;;;;;;;;;6230268;23;20012;-89
2023/01/19 04:35:39;;;;;;;22.58;8.85;;;;;;;;;;6218972;23;20020;-89
2023/01/19 04:38:07;;;;;;;18.70;9.00;;;;;;;;;;6255331;22;20058;-90
2023/01/19 04:40:39;;;;;;;22.25;8.93;;;;;;;;;;6255976;23;20019;-89
2023/01/19 04:43:07;;;;;;;19.70;9.40;;;;;;;;;;6255852;22;20051;-89
2023/01/19 04:45:35;;;;;;;17.13;8.43;;;;;;;;;;6255262;22;20024;-89
2023/01/19 04:48:11;;;;;;;16.40;8.48;;;;;;;;;;6254371;23;20027;-89
2023/01/19 04:50:41;;;;;;;16.65;8.25;;;;;;;;;;6253871;23;20012;-89
2023/01/19 04:53:09;;;;;;;19.85;9.40;;;;;;;;;;6252942;23;20016;-89
2023/01/19 04:55:37;;;;;;;15.57;8.25;;;;;;;;;;6253561;23;20095;-89
2023/01/19 04:58:05;;;;;;;17.98;8.80;;;;;;;;;;6252997;23;20104;-89
2023/01/19 05:00:37;;;;;;;17.95;9.40;;;;;;;;;;6193515;23;20111;-89
2023/01/19 05:03:30;;;;;;;16.02;8.90;;;;;;;;;;6253114;23;20073;-89
2023/01/19 05:06:21;;;;;;;20.60;9.30;;;;;;;;;;6254312;23;20150;-89
2023/01/19 05:09:14;;;;;;;17.52;9.32;;;;;;;;;;6254630;23;20044;-89
2023/01/19 05:11:41;;;;;;;18.05;9.25;;;;;;;;;;6229198;23;20111;-89
2023/01/19 05:14:09;;;;;;;20.75;9.48;;;;;;;;;;6243958;23;20070;-89
2023/01/19 05:16:37;;;;;;;19.42;8.75;;;;;;;;;;6255580;22;20020;-90
2023/01/19 05:19:05;;;;;;;20.60;8.73;;;;;;;;;;6243298;23;20351;-90
2023/01/19 05:21:33;;;;;;;20.05;10.15;;;;;;;;;;6256350;23;20066;-89
2023/01/19 05:24:01;;;;;;;22.23;9.50;;;;;;;;;;6258845;22;20091;-88
2023/01/19 05:29:21;;;;;;;18.73;9.15;;;;;;;;;;6247882;23;20074;-89
2023/01/19 05:31:49;;;;;;;24.42;9.88;;;;;;;;;;6222409;23;20475;-90
2023/01/19 05:34:17;;;;;;;20.67;9.20;;;;;;;;;;6258172;23;20352;-89
2023/01/19 05:36:49;;;;;;;17.70;8.50;;;;;;;;;;6223931;23;20030;-89
2023/01/19 05:39:21;;;;;;;19.90;9.70;;;;;;;;;;6224061;23;20027;-90
2023/01/19 05:41:51;;;;;;;23.98;9.80;;;;;;;;;;6258431;23;20039;-89
2023/01/19 05:44:23;;;;;;;15.98;8.57;;;;;;;;;;6258685;23;20436;-89
2023/01/19 05:46:51;;;;;;;19.52;9.60;;;;;;;;;;6222971;23;20032;-89
2023/01/19 05:49:19;;;;;;;20.17;8.73;;;;;;;;;;6260093;23;20016;-90
2023/01/19 05:52:11;;;;;;;19.33;9.90;;;;;;;;;;6260303;23;20016;-89
2023/01/19 05:54:39;;;;;;;19.50;8.73;;;;;;;;;;6198707;23;20020;-89
2023/01/19 05:57:07;;;;;;;22.85;9.23;;;;;;;;;;6248913;23;20027;-89
2023/01/19 05:59:35;;;;;;;20.48;9.38;;;;;;;;;;6260296;23;20016;-89
2023/01/19 06:04:55;;;;;;;18.15;8.90;;;;;;;;;;6259013;23;20020;-89
2023/01/19 06:07:23;;;;;;;24.27;10.63;;;;;;;;;;6197126;23;20038;-89
2023/01/19 06:09:51;;;;;;;18.20;9.60;;;;;;;;;;6242839;23;20020;-90
2023/01/19 06:12:23;;;;;;;23.20;9.55;;;;;;;;;;6251349;23;20470;-89
2023/01/19 06:14:51;;;;;;;21.58;10.65;;;;;;;;;;6227806;23;20030;-90
2023/01/19 06:17:43;;;;;;;20.48;10.85;;;;;;;;;;6254832;23;20433;-90
2023/01/19 06:20:12;;;;;;;20.95;9.52;;;;;;;;;;6256696;23;20022;-89
2023/01/19 06:22:41;;;;;;;21.15;10.80;;;;;;;;;;6245472;23;20396;-90
2023/01/19 06:25:33;;;;;;;25.83;10.85;;;;;;;;;;6221587;23;20004;-88
2023/01/19 06:28:05;;;;;;;22.10;10.27;;;;;;;;;;6251002;23;20504;-88
2023/01/19 06:30:33;;;;;;;21.00;9.88;;;;;;;;;;6254118;23;20070;-89
2023/01/19 06:36:19;;;;;;;22.42;9.75;;;;;;;;;;6258370;23;20024;-89
2023/01/19 06:38:47;;;;;;;18.35;8.40;;;;;;;;;;6259464;23;20020;-85
2023/01/19 06:41:15;;;;;;;18.98;8.63;;;;;;;;;;6220808;23;20019;-89
2023/01/19 06:43:43;;;;;;;20.60;9.45;;;;;;;;;;6232419;23;20380;-89
2023/01/19 06:46:12;;;;;;;22.23;9.88;;;;;;;;;;6251256;23;20030;-90
2023/01/19 06:48:45;;;;;;;21.33;10.23;;;;;;;;;;6231072;23;20076;-89
2023/01/19 06:51:13;;;;;;;17.40;9.85;;;;;;;;;;6220531;23;20095;-89
2023/01/19 06:53:41;;;;;;;17.80;8.88;;;;;;;;;;6222312;23;20016;-89
2023/01/19 06:56:33;;;;;;;14.75;9.38;;;;;;;;;;6249301;23;20124;-91
2023/01/19 06:59:01;;;;;;;17.20;8.75;;;;;;;;;;6196746;23;20047;-90
2023/01/19 07:01:29;;;;;;;22.00;8.98;;;;;;;;;;6246196;23;20464;-90
2023/01/19 07:04:01;;;;;;;19.25;9.68;;;;;;;;;;6252632;23;20031;-89
2023/01/19 07:06:29;;;;;;;17.15;8.30;;;;;;;;;;6251941;22;20027;-89
2023/01/19 07:09:05;;;;;;;17.50;9.05;;;;;;;;;;6249618;23;20500;-90
2023/01/19 07:11:33;;;;;;;19.20;9.75;;;;;;;;;;6253790;22;20104;-90
2023/01/19 07:14:32;;;;;;;20.98;9.52;;;;;;;;;;6254015;22;20099;-90
2023/01/19 07:17:01;;;;;;;17.80;9.13;;;;;;;;;;6252958;22;20020;-90
2023/01/19 07:19:30;;;;;;;17.25;8.30;;;;;;;;;;6237280;23;20042;-90
2023/01/19 07:21:57;;;;;;;17.50;8.60;;;;;;;;;;6264086;23;20031;-90
2023/01/19 07:24:25;;;;;;;16.90;9.20;;;;;;;;;;6204114;23;20023;-90
2023/01/19 07:26:53;;;;;;;16.42;9.27;;;;;;;;;;6242991;23;20078;-89
2023/01/19 07:29:21;;;;;;;19.48;9.27;;;;;;;;;;6209203;23;20082;-90
2023/01/19 07:31:55;;;;;;;22.05;9.75;;;;;;;;;;6243670;23;20072;-90
2023/01/19 07:34:23;;;;;;;19.55;9.93;;;;;;;;;;6208632;23;20542;-89
2023/01/19 07:36:51;;;;;;;19.58;9.90;;;;;;;;;;6243330;23;20039;-90
2023/01/19 07:39:23;;;;;;;20.67;9.80;;;;;;;;;;6207643;23;20020;-90
2023/01/19 07:41:51;;;;;;;18.08;9.88;;;;;;;;;;6205378;23;20062;-90
2023/01/19 07:44:19;;;;;;;19.75;8.95;;;;;;;;;;6258177;23;20079;-89
2023/01/19 07:47:11;;;;;;;18.75;8.75;;;;;;;;;;6248564;23;20030;-90
2023/01/19 07:50:12;;;;;;;18.52;9.25;;;;;;;;;;6260312;23;20020;-89
2023/01/19 07:52:41;;;;;;;20.48;9.20;;;;;;;;;;6258461;23;20020;-89
2023/01/19 07:55:09;;;;;;;18.42;9.50;;;;;;;;;;6199896;23;20030;-89
2023/01/19 07:57:37;;;;;;;22.73;10.30;;;;;;;;;;6200223;23;20024;-89
2023/01/19 08:00:07;;;;;;;20.33;9.57;;;;;;;;;;6235414;23;20020;-90
2023/01/19 08:02:41;;;;;;;26.33;11.50;;;;;;;;;;6224015;23;20035;-91
2023/01/19 08:05:09;;;;;;;21.90;10.60;;;;;;;;;;6234667;23;20099;-90
2023/01/19 08:07:37;;;;;;;20.27;10.52;;;;;;;;;;6260515;23;20016;-90
2023/01/19 08:10:14;;;;;;;19.58;10.15;;;;;;;;;;6249831;23;20028;-90
2023/01/19 08:13:07;;;;;;;23.13;11.18;;;;;;;;;;6260067;23;20103;-90
2023/01/19 08:15:39;;;;;;;20.67;10.30;;;;;;;;;;6224782;23;20399;-89
2023/01/19 08:18:08;;;;;;;23.38;10.30;;;;;;;;;;6198127;23;20016;-90
2023/01/19 08:20:37;;;;;;;26.80;11.25;;;;;;;;;;6235947;23;20089;-90
2023/01/19 08:23:05;;;;;;;21.05;10.43;;;;;;;;;;6225182;23;20036;-90
2023/01/19 08:25:57;;;;;;;20.45;9.57;;;;;;;;;;6259080;23;20589;-89
2023/01/19 08:28:25;;;;;;;22.88;11.38;;;;;;;;;;6226101;23;20048;-90
2023/01/19 08:30:53;;;;;;;25.23;11.88;;;;;;;;;;6256455;23;20023;-89
2023/01/19 08:33:22;;;;;;;21.50;11.02;;;;;;;;;;6255480;22;20031;-90
2023/01/19 08:35:52;;;;;;;23.08;10.70;;;;;;;;;;6258087;23;20020;-91
2023/01/19 08:38:21;;;;;;;19.77;10.32;;;;;;;;;;6223872;23;20111;-90
2023/01/19 08:40:49;;;;;;;21.27;11.07;;;;;;;;;;6258117;23;20012;-90
2023/01/19 08:43:17;;;;;;;25.30;10.52;;;;;;;;;;6232514;23;20039;-89
2023/01/19 08:46:09;;;;;;;27.85;11.88;;;;;;;;;;6256582;23;20004;-90
2023/01/19 08:48:37;;;;;;;20.45;10.30;;;;;;;;;;6255495;22;20020;-90
2023/01/19 08:51:09;;;;;;;20.33;9.30;;;;;;;;;;6222244;23;20063;-90
2023/01/19 08:54:06;;;;;;;19.75;9.52;;;;;;;;;;6255646;23;20348;-90
2023/01/19 08:56:33;;;;;;;23.27;10.18;;;;;;;;;;6229124;23;20020;-90
2023/01/19 08:59:01;;;;;;;24.83;10.35;;;;;;;;;;6255064;23;20039;-90
2023/01/19 09:01:37;;;;;;;20.77;9.52;;;;;;;;;;6196099;23;20039;-90
2023/01/19 09:04:05;;;;;;;20.27;9.25;;;;;;;;;;6229831;23;20031;-90
2023/01/19 09:06:33;;;;;;;20.02;10.00;;;;;;;;;;6257874;23;20028;-91
2023/01/19 09:09:25;;;;;;;22.08;10.32;;;;;;;;;;6256906;22;20035;-90
2023/01/19 09:11:57;;;;;;;20.45;9.90;;;;;;;;;;6232734;23;20026;-90
2023/01/19 09:14:25;;;;;;;19.92;9.52;;;;;;;;;;6258757;23;20520;-90
2023/01/19 09:16:57;;;;;;;20.90;10.00;;;;;;;;;;6195956;23;20024;-91
2023/01/19 09:19:25;;;;;;;22.35;10.02;;;;;;;;;;6221141;23;20028;-90
2023/01/19 09:21:58;;;;;;;21.65;10.68;;;;;;;;;;6257836;23;20456;-89
2023/01/19 09:24:33;;;;;;;25.88;10.98;;;;;;;;;;6231761;23;20020;-90
2023/01/19 09:27:01;;;;;;;20.83;10.30;;;;;;;;;;6197206;23;20035;-90
2023/01/19 09:29:29;;;;;;;20.17;10.07;;;;;;;;;;6256705;23;20624;-90
2023/01/19 09:31:57;;;;;;;26.20;10.95;;;;;;;;;;6197089;23;20028;-90
2023/01/19 09:34:25;;;;;;;21.60;10.25;;;;;;;;;;6234348;23;20028;-90
2023/01/19 09:36:53;;;;;;;19.65;9.75;;;;;;;;;;6222744;23;20107;-90
2023/01/19 09:39:45;;;;;;;21.23;9.82;;;;;;;;;;6237065;23;20110;-90
2023/01/19 09:42:38;;;;;;;22.20;11.77;;;;;;;;;;6258103;23;20020;-90
2023/01/19 09:45:12;;;;;;;19.85;10.95;;;;;;;;;;6197911;23;20034;-90
2023/01/19 09:48:21;;;;;;;21.38;10.00;;;;;;;;;;6256306;23;20208;-89
2023/01/19 09:50:49;;;;;;;24.17;10.80;;;;;;;;;;6259189;23;20012;-89
2023/01/19 09:53:35;;;;;;;22.63;10.70;;;;;;;;;;6237523;23;20612;-91
2023/01/19 09:56:03;;;;;;;22.83;10.82;;;;;;;;;;6230259;23;20016;-90
2023/01/19 09:58:36;;;;;;;21.02;9.98;;;;;;;;;;6260321;23;20024;-90
2023/01/19 10:01:26;;;;;;;21.35;10.48;;;;;;;;;;6191619;23;20027;-90
2023/01/19 10:04:25;;;;;;;22.25;10.82;;;;;;;;;;6226582;23;20026;-90
2023/01/19 10:07:05;;;;;;;21.13;10.65;;;;;;;;;;6224315;23;20091;-90
2023/01/19 10:10:01;;;;;;;25.63;11.30;;;;;;;;;;6228279;23;20016;-90
2023/01/19 10:12:51;;;;;;;26.35;11.18;;;;;;;;;;6191619;23;20023;-90
2023/01/19 10:15:31;;;;;;;23.50;10.05;;;;;;;;;;6191783;23;20103;-90
2023/01/19 10:18:24;;;;;;;25.48;11.07;;;;;;;;;;6240782;23;20030;-90
2023/01/19 10:21:11;;;;;;;25.63;11.55;;;;;;;;;;6215809;23;20020;-90
2023/01/19 10:24:24;;;;;;;23.63;10.60;;;;;;;;;;6251823;23;20020;-90
2023/01/19 10:26:54;;;;;;;21.90;10.98;;;;;;;;;;6252392;22;20675;-90
2023/01/19 10:29:47;;;;;;;25.27;10.38;;;;;;;;;;6251265;23;20133;-90
2023/01/19 10:32:20;;;;;;;22.42;10.63;;;;;;;;;;6249847;23;20032;-91
2023/01/19 10:34:48;;;;;;;25.20;10.75;;;;;;;;;;6251071;23;20016;-91
2023/01/19 10:37:17;;;;;;;23.70;10.45;;;;;;;;;;6226628;23;20108;-90
2023/01/19 10:39:50;;;;;;;23.85;10.68;;;;;;;;;;6251942;23;20020;-91
2023/01/19 10:42:19;;;;;;;20.42;9.32;;;;;;;;;;6226126;23;20020;-90
2023/01/19 10:44:51;;;;;;;23.92;10.10;;;;;;;;;;6252155;23;20462;-90
2023/01/19 10:47:32;;;;;;;20.33;9.82;;;;;;;;;;6250643;23;20012;-90
2023/01/19 10:50:31;;;;;;;26.25;11.50;;;;;;;;;;6251895;23;20028;-91
2023/01/19 10:53:04;;;;;;;23.13;10.27;;;;;;;;;;6251818;23;20066;-90
2023/01/19 10:55:38;;;;;;;24.00;10.50;;;;;;;;;;6242318;23;20035;-91
2023/01/19 10:58:23;;;;;;;22.55;10.60;;;;;;;;;;6253452;22;20024;-90
2023/01/19 11:00:51;;;;;;;26.42;10.07;;;;;;;;;;6215769;23;20016;-90
2023/01/19 11:03:24;;;;;;;20.92;10.00;;;;;;;;;;6252956;22;20039;-90
2023/01/19 11:05:54;;;;;;;21.98;10.18;;;;;;;;;;6267830;23;20380;-90
2023/01/19 11:08:28;;;;;;;23.33;10.07;;;;;;;;;;6256376;23;20016;-90
2023/01/19 11:11:03;;;;;;;18.63;9.18;;;;;;;;;;6252202;22;20047;-90
2023/01/19 11:13:31;;;;;;;18.45;9.07;;;;;;;;;;6250685;22;20012;-89
2023/01/19 11:16:24;;;;;;;20.10;8.95;;;;;;;;;;6250688;23;20024;-89
2023/01/19 11:18:55;;;;;;;19.48;8.82;;;;;;;;;;6263015;22;20399;-89
2023/01/19 11:21:25;;;;;;;17.58;8.13;;;;;;;;;;6248568;23;20019;-89
2023/01/19 11:24:19;;;;;;;14.57;7.88;;;;;;;;;;6238514;23;20016;-89
2023/01/19 11:27:01;;;;;;;17.27;8.98;;;;;;;;;;6262739;22;20048;-90
2023/01/19 11:29:30;;;;;;;16.75;7.88;;;;;;;;;;6249766;22;20070;-90
2023/01/19 11:32:17;;;;;;;15.57;8.00;;;;;;;;;;6247904;23;20020;-89
2023/01/19 11:34:45;;;;;;;23.83;10.98;;;;;;;;;;6248647;23;20016;-90
2023/01/19 11:37:19;;;;;;;18.92;9.57;;;;;;;;;;6222757;23;20451;-89
2023/01/19 11:40:07;;;;;;;18.42;9.50;;;;;;;;;;6248518;23;20028;-90
2023/01/19 11:42:36;;;;;;;20.50;10.02;;;;;;;;;;6249167;23;20020;-89
2023/01/19 11:45:11;;;;;;;20.77;10.07;;;;;;;;;;6250279;22;20038;-89
2023/01/19 11:47:50;;;;;;;22.83;10.52;;;;;;;;;;6247550;23;20341;-90
2023/01/19 11:50:30;;;;;;;19.90;9.57;;;;;;;;;;6239486;23;20020;-89
2023/01/19 11:53:24;;;;;;;24.90;10.27;;;;;;;;;;6249505;23;20016;-89
2023/01/19 11:56:08;;;;;;;20.50;10.52;;;;;;;;;;6227742;23;20043;-89
2023/01/19 11:58:46;;;;;;;25.17;10.73;;;;;;;;;;6251728;23;20012;-89
2023/01/19 12:01:31;;;;;;;22.60;10.80;;;;;;;;;;6250567;23;20042;-90
2023/01/19 12:04:29;;;;;;;19.38;9.68;;;;;;;;;;6215256;23;20039;-89
2023/01/19 12:07:02;;;;;;;16.58;8.75;;;;;;;;;;6251062;23;20396;-90
2023/01/19 12:10:06;;;;;;;16.73;8.90;;;;;;;;;;6253476;23;20015;-90
2023/01/19 12:12:35;;;;;;;17.20;8.65;;;;;;;;;;6257100;23;20020;-90
2023/01/19 12:15:41;;;;;;;17.17;8.57;;;;;;;;;;6252603;23;20020;-91
2023/01/19 12:18:22;;;;;;;18.70;8.75;;;;;;;;;;6251031;23;20042;-90
2023/01/19 12:20:55;;;;;;;;;;;;;;;;;;6217421;23;20027;-91
2023/01/19 12:23:31;;;;;;;14.90;8.32;;;;;;;;;;6218741;23;19941;-89
2023/01/19 12:26:15;;;;;;;15.68;7.97;;;;;;;;;;6240975;23;20039;-88
2023/01/19 12:29:11;;;;;;;15.82;7.95;;;;;;;;;;6240837;23;20058;-89
2023/01/19 12:31:41;;;;;;;14.60;7.70;;;;;;;;;;6251088;22;20012;-88
2023/01/19 12:34:45;;;;;;;18.77;9.07;;;;;;;;;;6214277;23;20601;-88
2023/01/19 12:37:34;;;;;;;15.63;7.88;;;;;;;;;;6252107;22;20054;-88
2023/01/19 12:40:29;;;;;;;16.52;7.47;;;;;;;;;;6249254;23;20020;-89
2023/01/19 12:43:23;;;;;;;17.83;8.73;;;;;;;;;;6249599;23;20043;-88
2023/01/19 12:45:51;;;;;;;18.15;8.30;;;;;;;;;;6250261;23;20456;-89
2023/01/19 12:48:43;;;;;;;13.68;7.40;;;;;;;;;;6252659;23;20019;-90
2023/01/19 12:51:35;;;;;;;15.60;7.68;;;;;;;;;;6240163;23;20024;-89
2023/01/19 12:54:17;;;;;;;19.65;8.32;;;;;;;;;;6251335;23;20023;-89
2023/01/19 12:56:48;;;;;;;16.75;8.60;;;;;;;;;;6252785;23;20055;-88
2023/01/19 12:59:24;;;;;;;23.90;8.88;;;;;;;;;;6240878;23;20071;-89
2023/01/19 13:02:19;;;;;;;18.92;8.68;;;;;;;;;;6225682;23;20074;-90
2023/01/19 13:05:15;;;;;;;15.07;6.95;;;;;;;;;;6251544;23;20020;-90
2023/01/19 13:08:01;;;;;;;17.98;8.10;;;;;;;;;;6100751;23;20033;-89
2023/01/19 13:10:53;;;;;;;15.35;7.43;;;;;;;;;;6134183;23;20532;-91
2023/01/19 13:13:32;;;;;;;15.57;7.13;;;;;;;;;;6132416;23;20419;-91
2023/01/19 13:16:26;;;;;;;16.50;7.22;;;;;;;;;;6133884;23;20029;-92
2023/01/19 13:19:51;;;;;;;17.30;6.55;;;;;;;;;;6098310;23;20014;-91
2023/01/19 13:22:59;;;;;;;16.27;6.72;;;;;;;;;;6041216;23;20027;-92
2023/01/19 13:25:34;;;;;;;15.50;7.20;;;;;;;;;;6076137;23;20053;-92
2023/01/19 13:28:08;;;;;;;20.00;8.13;;;;;;;;;;6075614;23;20112;-90
2023/01/19 13:30:36;;;;;;;13.60;7.20;;;;;;;;;;6074674;23;20022;-91
2023/01/19 13:33:18;;;;;;;17.42;7.00;;;;;;;;;;6041117;23;20019;-91
2023/01/19 13:35:51;;;;;;;14.88;6.97;;;;;;;;;;6073348;23;20070;-91
2023/01/19 13:38:21;;;;;;;14.95;7.32;;;;;;;;;;6066876;23;20026;-90
2023/01/19 13:40:49;;;;;;;15.43;7.90;;;;;;;;;;6074918;23;20022;-91
2023/01/19 13:43:29;;;;;;;15.88;6.53;;;;;;;;;;6075509;23;20046;-91
2023/01/19 13:46:11;;;;;;;13.38;7.03;;;;;;;;;;6071646;23;20069;-91
2023/01/19 13:48:39;;;;;;;13.90;6.45;;;;;;;;;;6104441;23;20026;-90
2023/01/19 13:51:16;;;;;;;14.98;6.97;;;;;;;;;;6135910;23;20101;-92
2023/01/19 13:53:53;;;;;;;15.32;7.38;;;;;;;;;;6113646;23;20025;-91
2023/01/19 13:56:28;;;;;;;16.10;6.55;;;;;;;;;;6202350;23;20020;-91
2023/01/19 13:59:03;;;;;;;14.35;6.85;;;;;;;;;;6251843;22;20048;-91
2023/01/19 14:01:31;;;;;;;14.27;6.63;;;;;;;;;;6214551;23;20523;-91
2023/01/19 14:04:27;;;;;;;14.00;6.55;;;;;;;;;;6240210;23;20024;-91
2023/01/19 14:07:11;;;;;;;15.48;6.78;;;;;;;;;;6250868;23;20329;-92
2023/01/19 14:09:39;;;;;;;18.25;6.93;;;;;;;;;;6216639;23;20024;-91
2023/01/19 14:12:07;;;;;;;18.08;6.78;;;;;;;;;;6251345;23;20079;-91
2023/01/19 14:14:35;;;;;;;14.55;7.22;;;;;;;;;;6225860;23;20016;-91
2023/01/19 14:17:03;;;;;;;14.35;7.13;;;;;;;;;;6250157;22;20029;-91
2023/01/19 14:19:51;;;;;;;13.68;6.70;;;;;;;;;;6213918;23;20067;-91
2023/01/19 14:22:19;;;;;;;12.05;6.28;;;;;;;;;;6214548;23;20049;-92
2023/01/19 14:24:47;;;;;;;11.88;6.35;;;;;;;;;;6190008;23;20017;-92
2023/01/19 14:27:23;;;;;;;13.75;6.85;;;;;;;;;;6216108;23;20020;-91
2023/01/19 14:30:23;;;;;;;18.00;7.35;;;;;;;;;;6216720;23;20050;-91
2023/01/19 14:33:40;;;;;;;17.35;7.40;;;;;;;;;;6254126;22;20317;-91
2023/01/19 14:36:13;;;;;;;13.32;6.07;;;;;;;;;;6216317;23;20023;-91
2023/01/19 14:38:44;;;;;;;12.55;6.38;;;;;;;;;;6248958;23;20050;-91
2023/01/19 14:41:42;;;;;;;13.30;6.63;;;;;;;;;;6214850;23;20024;-91
2023/01/19 14:44:19;;;;;;;16.00;6.57;;;;;;;;;;6225517;23;20037;-91
2023/01/19 14:46:47;;;;;;;14.25;6.65;;;;;;;;;;6239290;23;20023;-91
2023/01/19 14:49:31;;;;;;;16.27;7.00;;;;;;;;;;6248939;23;20444;-91
2023/01/19 14:52:05;;;;;;;13.43;6.22;;;;;;;;;;6190239;23;20028;-90
2023/01/19 14:54:39;;;;;;;16.98;6.82;;;;;;;;;;6224303;23;20058;-92
2023/01/19 14:57:12;;;;;;;12.70;6.28;;;;;;;;;;6252259;22;20020;-91
2023/01/19 14:59:45;;;;;;;11.32;5.60;;;;;;;;;;6251016;23;20019;-91
2023/01/19 15:02:19;;;;;;;12.68;5.45;;;;;;;;;;6224902;23;20027;-90
2023/01/19 15:04:47;;;;;;;11.10;5.32;;;;;;;;;;6214871;23;20012;-90
2023/01/19 15:07:18;;;;;;;13.95;4.68;;;;;;;;;;6251299;22;20024;-90
2023/01/19 15:09:47;;;;;;;10.35;4.70;;;;;;;;;;6250757;23;20078;-88
2023/01/19 15:12:39;;;;;;;11.52;4.50;;;;;;;;;;6251613;23;20024;-91
2023/01/19 15:15:17;;;;;;;14.45;5.13;;;;;;;;;;6215877;23;20020;-91
2023/01/19 15:18:15;;;;;;;13.82;5.07;;;;;;;;;;6250820;23;20023;-91
2023/01/19 15:20:43;;;;;;;11.52;4.50;;;;;;;;;;6225587;23;20023;-91
2023/01/19 15:23:11;;;;;;;8.68;4.63;;;;;;;;;;6251398;22;20020;-91
2023/01/19 15:25:44;;;;;;;13.80;3.67;;;;;;;;;;6249348;23;20091;-91
2023/01/19 15:28:13;;;;;;;9.00;4.00;;;;;;;;;;6250690;23;20026;-91
2023/01/19 15:30:41;;;;;;;10.90;3.90;;;;;;;;;;6214934;23;20103;-91
2023/01/19 15:33:21;;;;;;;12.18;3.88;;;;;;;;;;6214896;23;20024;-90
2023/01/19 15:35:53;;;;;;;14.60;4.13;;;;;;;;;;6251077;23;20086;-91
2023/01/19 15:38:22;;;;;;;10.52;4.05;;;;;;;;;;6252193;23;20024;-91
2023/01/19 15:40:56;;;;;;;8.70;4.03;;;;;;;;;;6215168;23;20024;-90
2023/01/19 15:43:23;;;;;;;9.57;3.50;;;;;;;;;;6251173;23;20054;-91
2023/01/19 15:45:59;;;;;;;7.90;2.90;;;;;;;;;;6226782;23;20054;-91